sensor_id;sensor_type;location;lat;lon;timestamp;P1;durP1;ratioP1;P2;durP2;ratioP2
72413;SDS011;60995;52.154;4.498;2022-08-21T00:01:49;15.50;;;3.92;;
72413;SDS011;60995;52.154;4.498;2022-08-21T00:04:06;15.55;;;4.40;;
72413;SDS011;60995;52.154;4.498;2022-08-21T00:06:26;13.70;;;4.40;;
72413;SDS011;60995;52.154;4.498;2022-08-21T00:08:43;14.88;;;4.45;;
72413;SDS011;60995;52.154;4.498;2022-08-21T00:11:02;10.40;;;3.65;;
72413;SDS011;60995;52.154;4.498;2022-08-21T00:13:21;14.00;;;4.00;;
72413;SDS011;60995;52.154;4.498;2022-08-21T00:15:38;16.30;;;3.92;;
72413;SDS011;60995;52.154;4.498;2022-08-21T00:17:56;18.40;;;4.55;;
72413;SDS011;60995;52.154;4.498;2022-08-21T00:20:15;15.00;;;3.97;;
72413;SDS011;60995;52.154;4.498;2022-08-21T00:22:36;14.10;;;4.00;;
72413;SDS011;60995;52.154;4.498;2022-08-21T00:24:53;15.90;;;4.22;;
72413;SDS011;60995;52.154;4.498;2022-08-21T00:27:09;14.82;;;3.50;;
72413;SDS011;60995;52.154;4.498;2022-08-21T00:29:29;15.00;;;3.75;;
72413;SDS011;60995;52.154;4.498;2022-08-21T00:31:46;15.88;;;3.70;;
72413;SDS011;60995;52.154;4.498;2022-08-21T00:34:03;15.48;;;3.60;;
72413;SDS011;60995;52.154;4.498;2022-08-21T00:36:20;16.25;;;4.05;;
72413;SDS011;60995;52.154;4.498;2022-08-21T00:38:39;15.10;;;4.10;;
72413;SDS011;60995;52.154;4.498;2022-08-21T00:40:58;14.45;;;3.75;;
72413;SDS011;60995;52.154;4.498;2022-08-21T00:43:22;13.02;;;3.67;;
72413;SDS011;60995;52.154;4.498;2022-08-21T00:45:54;16.00;;;4.20;;
72413;SDS011;60995;52.154;4.498;2022-08-21T00:48:12;15.45;;;3.67;;
72413;SDS011;60995;52.154;4.498;2022-08-21T00:50:32;16.08;;;3.70;;
72413;SDS011;60995;52.154;4.498;2022-08-21T00:52:55;12.30;;;3.95;;
72413;SDS011;60995;52.154;4.498;2022-08-21T00:55:15;12.02;;;3.85;;
72413;SDS011;60995;52.154;4.498;2022-08-21T00:57:45;13.65;;;3.90;;
72413;SDS011;60995;52.154;4.498;2022-08-21T01:00:12;16.17;;;4.30;;
72413;SDS011;60995;52.154;4.498;2022-08-21T01:02:37;18.00;;;3.70;;
72413;SDS011;60995;52.154;4.498;2022-08-21T01:04:54;12.93;;;3.70;;
72413;SDS011;60995;52.154;4.498;2022-08-21T01:07:11;14.60;;;3.58;;
72413;SDS011;60995;52.154;4.498;2022-08-21T01:09:34;13.55;;;4.05;;
72413;SDS011;60995;52.154;4.498;2022-08-21T01:11:56;7.72;;;3.22;;
72413;SDS011;60995;52.154;4.498;2022-08-21T01:14:31;19.85;;;3.95;;
72413;SDS011;60995;52.154;4.498;2022-08-21T01:16:49;23.10;;;4.15;;
72413;SDS011;60995;52.154;4.498;2022-08-21T01:19:10;13.25;;;3.63;;
72413;SDS011;60995;52.154;4.498;2022-08-21T01:21:27;13.52;;;3.95;;
72413;SDS011;60995;52.154;4.498;2022-08-21T01:23:49;13.95;;;3.85;;
72413;SDS011;60995;52.154;4.498;2022-08-21T01:26:09;15.07;;;3.42;;
72413;SDS011;60995;52.154;4.498;2022-08-21T01:28:33;14.05;;;3.67;;
72413;SDS011;60995;52.154;4.498;2022-08-21T01:30:56;18.20;;;4.57;;
72413;SDS011;60995;52.154;4.498;2022-08-21T01:33:15;17.88;;;4.22;;
72413;SDS011;60995;52.154;4.498;2022-08-21T01:35:36;19.42;;;4.38;;
72413;SDS011;60995;52.154;4.498;2022-08-21T01:37:52;16.70;;;3.75;;
72413;SDS011;60995;52.154;4.498;2022-08-21T01:40:09;13.93;;;4.10;;
72413;SDS011;60995;52.154;4.498;2022-08-21T01:42:28;12.02;;;3.47;;
72413;SDS011;60995;52.154;4.498;2022-08-21T01:44:44;11.07;;;3.83;;
72413;SDS011;60995;52.154;4.498;2022-08-21T01:47:02;19.63;;;4.78;;
72413;SDS011;60995;52.154;4.498;2022-08-21T01:49:23;14.57;;;4.82;;
72413;SDS011;60995;52.154;4.498;2022-08-21T01:51:39;20.90;;;5.55;;
72413;SDS011;60995;52.154;4.498;2022-08-21T01:53:55;14.65;;;4.32;;
72413;SDS011;60995;52.154;4.498;2022-08-21T01:56:13;20.33;;;4.75;;
72413;SDS011;60995;52.154;4.498;2022-08-21T01:58:32;18.02;;;4.40;;
72413;SDS011;60995;52.154;4.498;2022-08-21T02:00:49;11.82;;;4.43;;
72413;SDS011;60995;52.154;4.498;2022-08-21T02:03:05;17.27;;;4.82;;
72413;SDS011;60995;52.154;4.498;2022-08-21T02:05:21;17.63;;;4.45;;
72413;SDS011;60995;52.154;4.498;2022-08-21T02:07:42;16.80;;;4.07;;
72413;SDS011;60995;52.154;4.498;2022-08-21T02:10:06;15.43;;;4.18;;
72413;SDS011;60995;52.154;4.498;2022-08-21T02:12:25;15.50;;;3.70;;
72413;SDS011;60995;52.154;4.498;2022-08-21T02:14:42;17.45;;;4.30;;
72413;SDS011;60995;52.154;4.498;2022-08-21T02:16:58;13.82;;;3.85;;
72413;SDS011;60995;52.154;4.498;2022-08-21T02:19:15;14.32;;;3.60;;
72413;SDS011;60995;52.154;4.498;2022-08-21T02:21:32;16.08;;;4.05;;
72413;SDS011;60995;52.154;4.498;2022-08-21T02:23:48;15.55;;;3.85;;
72413;SDS011;60995;52.154;4.498;2022-08-21T02:26:05;14.93;;;4.05;;
72413;SDS011;60995;52.154;4.498;2022-08-21T02:28:23;15.77;;;4.00;;
72413;SDS011;60995;52.154;4.498;2022-08-21T02:30:42;15.05;;;3.53;;
72413;SDS011;60995;52.154;4.498;2022-08-21T02:33:02;16.00;;;4.30;;
72413;SDS011;60995;52.154;4.498;2022-08-21T02:35:19;13.98;;;3.55;;
72413;SDS011;60995;52.154;4.498;2022-08-21T02:38:12;15.00;;;3.83;;
72413;SDS011;60995;52.154;4.498;2022-08-21T02:40:23;15.18;;;3.88;;
72413;SDS011;60995;52.154;4.498;2022-08-21T02:42:43;17.33;;;4.00;;
72413;SDS011;60995;52.154;4.498;2022-08-21T02:45:00;13.82;;;4.00;;
72413;SDS011;60995;52.154;4.498;2022-08-21T02:47:16;14.48;;;3.70;;
72413;SDS011;60995;52.154;4.498;2022-08-21T02:49:32;18.08;;;4.10;;
72413;SDS011;60995;52.154;4.498;2022-08-21T02:51:49;16.63;;;3.78;;
72413;SDS011;60995;52.154;4.498;2022-08-21T02:54:05;15.27;;;3.80;;
72413;SDS011;60995;52.154;4.498;2022-08-21T02:56:21;15.48;;;3.50;;
72413;SDS011;60995;52.154;4.498;2022-08-21T02:58:41;12.15;;;3.28;;
72413;SDS011;60995;52.154;4.498;2022-08-21T03:01:05;13.27;;;3.50;;
72413;SDS011;60995;52.154;4.498;2022-08-21T03:03:25;13.80;;;3.33;;
72413;SDS011;60995;52.154;4.498;2022-08-21T03:05:43;14.15;;;3.65;;
72413;SDS011;60995;52.154;4.498;2022-08-21T03:08:01;16.95;;;3.78;;
72413;SDS011;60995;52.154;4.498;2022-08-21T03:10:25;13.18;;;4.10;;
72413;SDS011;60995;52.154;4.498;2022-08-21T03:12:43;15.85;;;3.70;;
72413;SDS011;60995;52.154;4.498;2022-08-21T03:14:59;10.52;;;3.33;;
72413;SDS011;60995;52.154;4.498;2022-08-21T03:17:15;16.90;;;3.40;;
72413;SDS011;60995;52.154;4.498;2022-08-21T03:19:31;15.05;;;3.15;;
72413;SDS011;60995;52.154;4.498;2022-08-21T03:21:47;22.23;;;4.00;;
72413;SDS011;60995;52.154;4.498;2022-08-21T03:24:04;15.23;;;3.70;;
72413;SDS011;60995;52.154;4.498;2022-08-21T03:26:22;20.45;;;3.50;;
72413;SDS011;60995;52.154;4.498;2022-08-21T03:28:39;17.88;;;3.88;;
72413;SDS011;60995;52.154;4.498;2022-08-21T03:30:56;15.30;;;3.78;;
72413;SDS011;60995;52.154;4.498;2022-08-21T03:33:12;15.75;;;3.50;;
72413;SDS011;60995;52.154;4.498;2022-08-21T03:35:29;14.27;;;4.32;;
72413;SDS011;60995;52.154;4.498;2022-08-21T03:37:46;16.42;;;3.60;;
72413;SDS011;60995;52.154;4.498;2022-08-21T03:40:03;14.32;;;3.80;;
72413;SDS011;60995;52.154;4.498;2022-08-21T03:42:23;17.98;;;3.80;;
72413;SDS011;60995;52.154;4.498;2022-08-21T03:44:39;15.52;;;3.92;;
72413;SDS011;60995;52.154;4.498;2022-08-21T03:46:56;18.27;;;3.85;;
72413;SDS011;60995;52.154;4.498;2022-08-21T03:49:13;13.07;;;3.90;;
72413;SDS011;60995;52.154;4.498;2022-08-21T03:51:29;14.50;;;4.00;;
72413;SDS011;60995;52.154;4.498;2022-08-21T03:53:49;15.63;;;4.05;;
72413;SDS011;60995;52.154;4.498;2022-08-21T03:56:05;14.10;;;4.15;;
72413;SDS011;60995;52.154;4.498;2022-08-21T03:58:23;17.77;;;4.57;;
72413;SDS011;60995;52.154;4.498;2022-08-21T04:00:42;17.08;;;4.50;;
72413;SDS011;60995;52.154;4.498;2022-08-21T04:03:00;17.00;;;5.43;;
72413;SDS011;60995;52.154;4.498;2022-08-21T04:05:17;20.63;;;5.22;;
72413;SDS011;60995;52.154;4.498;2022-08-21T04:07:42;17.38;;;5.10;;
72413;SDS011;60995;52.154;4.498;2022-08-21T04:09:59;13.73;;;4.18;;
72413;SDS011;60995;52.154;4.498;2022-08-21T04:12:15;16.40;;;5.32;;
72413;SDS011;60995;52.154;4.498;2022-08-21T04:14:31;18.38;;;5.50;;
72413;SDS011;60995;52.154;4.498;2022-08-21T04:16:48;17.20;;;5.10;;
72413;SDS011;60995;52.154;4.498;2022-08-21T04:19:04;15.55;;;4.95;;
72413;SDS011;60995;52.154;4.498;2022-08-21T04:21:21;21.17;;;6.22;;
72413;SDS011;60995;52.154;4.498;2022-08-21T04:23:37;17.25;;;5.45;;
72413;SDS011;60995;52.154;4.498;2022-08-21T04:25:54;23.75;;;5.75;;
72413;SDS011;60995;52.154;4.498;2022-08-21T04:28:12;21.55;;;5.97;;
72413;SDS011;60995;52.154;4.498;2022-08-21T04:30:29;18.35;;;5.35;;
72413;SDS011;60995;52.154;4.498;2022-08-21T04:32:46;19.67;;;5.85;;
72413;SDS011;60995;52.154;4.498;2022-08-21T04:35:07;20.40;;;6.13;;
72413;SDS011;60995;52.154;4.498;2022-08-21T04:37:26;18.52;;;6.93;;
72413;SDS011;60995;52.154;4.498;2022-08-21T04:39:43;24.15;;;7.32;;
72413;SDS011;60995;52.154;4.498;2022-08-21T04:41:59;21.58;;;7.53;;
72413;SDS011;60995;52.154;4.498;2022-08-21T04:44:15;23.45;;;7.32;;
72413;SDS011;60995;52.154;4.498;2022-08-21T04:46:32;24.63;;;8.05;;
72413;SDS011;60995;52.154;4.498;2022-08-21T04:48:48;21.63;;;7.55;;
72413;SDS011;60995;52.154;4.498;2022-08-21T04:51:06;25.92;;;9.30;;
72413;SDS011;60995;52.154;4.498;2022-08-21T04:53:44;25.85;;;9.18;;
72413;SDS011;60995;52.154;4.498;2022-08-21T04:56:13;29.15;;;10.20;;
72413;SDS011;60995;52.154;4.498;2022-08-21T04:58:38;27.02;;;10.30;;
72413;SDS011;60995;52.154;4.498;2022-08-21T05:00:57;29.85;;;9.75;;
72413;SDS011;60995;52.154;4.498;2022-08-21T05:03:17;27.33;;;10.18;;
72413;SDS011;60995;52.154;4.498;2022-08-21T05:05:33;31.90;;;10.00;;
72413;SDS011;60995;52.154;4.498;2022-08-21T05:07:50;29.58;;;10.52;;
72413;SDS011;60995;52.154;4.498;2022-08-21T05:10:09;24.08;;;10.32;;
72413;SDS011;60995;52.154;4.498;2022-08-21T05:12:26;27.13;;;10.45;;
72413;SDS011;60995;52.154;4.498;2022-08-21T05:14:42;24.40;;;9.73;;
72413;SDS011;60995;52.154;4.498;2022-08-21T05:16:59;28.13;;;9.80;;
72413;SDS011;60995;52.154;4.498;2022-08-21T05:19:15;24.40;;;9.82;;
72413;SDS011;60995;52.154;4.498;2022-08-21T05:21:32;28.20;;;10.68;;
72413;SDS011;60995;52.154;4.498;2022-08-21T05:23:54;27.50;;;10.43;;
72413;SDS011;60995;52.154;4.498;2022-08-21T05:26:10;31.00;;;10.27;;
72413;SDS011;60995;52.154;4.498;2022-08-21T05:28:27;25.02;;;9.63;;
72413;SDS011;60995;52.154;4.498;2022-08-21T05:30:43;24.92;;;9.85;;
72413;SDS011;60995;52.154;4.498;2022-08-21T05:33:01;26.92;;;8.95;;
72413;SDS011;60995;52.154;4.498;2022-08-21T05:35:20;23.50;;;9.00;;
72413;SDS011;60995;52.154;4.498;2022-08-21T05:37:36;26.15;;;9.00;;
72413;SDS011;60995;52.154;4.498;2022-08-21T05:39:52;24.48;;;8.68;;
72413;SDS011;60995;52.154;4.498;2022-08-21T05:42:09;27.13;;;9.32;;
72413;SDS011;60995;52.154;4.498;2022-08-21T05:44:25;19.10;;;8.18;;
72413;SDS011;60995;52.154;4.498;2022-08-21T05:46:41;26.58;;;8.73;;
72413;SDS011;60995;52.154;4.498;2022-08-21T05:48:58;25.77;;;7.93;;
72413;SDS011;60995;52.154;4.498;2022-08-21T05:51:14;20.73;;;7.93;;
72413;SDS011;60995;52.154;4.498;2022-08-21T05:53:31;21.70;;;8.07;;
72413;SDS011;60995;52.154;4.498;2022-08-21T05:55:48;25.42;;;7.60;;
72413;SDS011;60995;52.154;4.498;2022-08-21T05:58:06;21.73;;;6.95;;
72413;SDS011;60995;52.154;4.498;2022-08-21T06:00:23;21.88;;;7.57;;
72413;SDS011;60995;52.154;4.498;2022-08-21T06:02:40;17.60;;;6.28;;
72413;SDS011;60995;52.154;4.498;2022-08-21T06:04:59;21.85;;;6.35;;
72413;SDS011;60995;52.154;4.498;2022-08-21T06:07:32;19.65;;;5.82;;
72413;SDS011;60995;52.154;4.498;2022-08-21T06:09:51;18.83;;;5.78;;
72413;SDS011;60995;52.154;4.498;2022-08-21T06:12:09;16.38;;;5.03;;
72413;SDS011;60995;52.154;4.498;2022-08-21T06:14:30;14.37;;;4.73;;
72413;SDS011;60995;52.154;4.498;2022-08-21T06:16:52;15.07;;;4.70;;
72413;SDS011;60995;52.154;4.498;2022-08-21T06:19:16;14.65;;;4.78;;
72413;SDS011;60995;52.154;4.498;2022-08-21T06:21:35;19.70;;;4.60;;
72413;SDS011;60995;52.154;4.498;2022-08-21T06:23:56;17.33;;;4.15;;
72413;SDS011;60995;52.154;4.498;2022-08-21T06:26:21;17.27;;;4.65;;
72413;SDS011;60995;52.154;4.498;2022-08-21T06:28:39;15.52;;;4.20;;
72413;SDS011;60995;52.154;4.498;2022-08-21T06:30:57;17.20;;;4.28;;
72413;SDS011;60995;52.154;4.498;2022-08-21T06:33:16;15.02;;;4.32;;
72413;SDS011;60995;52.154;4.498;2022-08-21T06:35:33;16.63;;;4.57;;
72413;SDS011;60995;52.154;4.498;2022-08-21T06:37:53;16.40;;;4.47;;
72413;SDS011;60995;52.154;4.498;2022-08-21T06:40:12;12.65;;;4.03;;
72413;SDS011;60995;52.154;4.498;2022-08-21T06:42:28;16.38;;;4.43;;
72413;SDS011;60995;52.154;4.498;2022-08-21T06:44:48;20.35;;;7.00;;
72413;SDS011;60995;52.154;4.498;2022-08-21T06:47:05;14.10;;;4.55;;
72413;SDS011;60995;52.154;4.498;2022-08-21T06:49:25;14.82;;;4.20;;
72413;SDS011;60995;52.154;4.498;2022-08-21T06:51:44;25.55;;;11.60;;
72413;SDS011;60995;52.154;4.498;2022-08-21T06:54:00;17.95;;;4.30;;
72413;SDS011;60995;52.154;4.498;2022-08-21T06:56:17;16.75;;;4.10;;
72413;SDS011;60995;52.154;4.498;2022-08-21T06:58:34;15.35;;;4.20;;
72413;SDS011;60995;52.154;4.498;2022-08-21T07:00:50;13.95;;;4.18;;
72413;SDS011;60995;52.154;4.498;2022-08-21T07:03:07;13.05;;;3.90;;
72413;SDS011;60995;52.154;4.498;2022-08-21T07:05:35;11.90;;;3.60;;
72413;SDS011;60995;52.154;4.498;2022-08-21T07:07:56;12.88;;;4.45;;
72413;SDS011;60995;52.154;4.498;2022-08-21T07:10:16;13.75;;;3.72;;
72413;SDS011;60995;52.154;4.498;2022-08-21T07:12:32;12.23;;;3.70;;
72413;SDS011;60995;52.154;4.498;2022-08-21T07:14:49;15.15;;;3.72;;
72413;SDS011;60995;52.154;4.498;2022-08-21T07:17:05;17.60;;;4.47;;
72413;SDS011;60995;52.154;4.498;2022-08-21T07:19:22;16.63;;;4.78;;
72413;SDS011;60995;52.154;4.498;2022-08-21T07:21:42;13.73;;;4.18;;
72413;SDS011;60995;52.154;4.498;2022-08-21T07:24:01;16.00;;;4.03;;
72413;SDS011;60995;52.154;4.498;2022-08-21T07:26:20;14.57;;;3.42;;
72413;SDS011;60995;52.154;4.498;2022-08-21T07:28:42;15.98;;;4.63;;
72413;SDS011;60995;52.154;4.498;2022-08-21T07:30:59;21.83;;;5.47;;
72413;SDS011;60995;52.154;4.498;2022-08-21T07:33:17;23.27;;;6.55;;
72413;SDS011;60995;52.154;4.498;2022-08-21T07:35:34;15.80;;;5.10;;
72413;SDS011;60995;52.154;4.498;2022-08-21T07:37:50;17.17;;;4.30;;
72413;SDS011;60995;52.154;4.498;2022-08-21T07:40:09;17.20;;;4.35;;
72413;SDS011;60995;52.154;4.498;2022-08-21T07:42:26;14.43;;;3.97;;
72413;SDS011;60995;52.154;4.498;2022-08-21T07:44:42;17.17;;;4.53;;
72413;SDS011;60995;52.154;4.498;2022-08-21T07:47:00;18.65;;;4.20;;
72413;SDS011;60995;52.154;4.498;2022-08-21T07:49:17;15.55;;;3.38;;
72413;SDS011;60995;52.154;4.498;2022-08-21T07:51:33;17.80;;;3.60;;
72413;SDS011;60995;52.154;4.498;2022-08-21T07:53:50;14.13;;;3.50;;
72413;SDS011;60995;52.154;4.498;2022-08-21T07:56:09;16.83;;;3.42;;
72413;SDS011;60995;52.154;4.498;2022-08-21T07:58:26;19.33;;;3.78;;
72413;SDS011;60995;52.154;4.498;2022-08-21T08:00:42;16.67;;;4.57;;
72413;SDS011;60995;52.154;4.498;2022-08-21T08:02:59;23.67;;;5.10;;
72413;SDS011;60995;52.154;4.498;2022-08-21T08:05:16;14.57;;;4.05;;
72413;SDS011;60995;52.154;4.498;2022-08-21T08:07:35;18.50;;;3.70;;
72413;SDS011;60995;52.154;4.498;2022-08-21T08:09:51;18.10;;;4.30;;
72413;SDS011;60995;52.154;4.498;2022-08-21T08:12:08;13.45;;;3.17;;
72413;SDS011;60995;52.154;4.498;2022-08-21T08:14:25;19.90;;;4.10;;
72413;SDS011;60995;52.154;4.498;2022-08-21T08:16:42;17.67;;;3.78;;
72413;SDS011;60995;52.154;4.498;2022-08-21T08:18:58;18.38;;;3.83;;
72413;SDS011;60995;52.154;4.498;2022-08-21T08:21:15;15.57;;;3.88;;
72413;SDS011;60995;52.154;4.498;2022-08-21T08:23:32;16.23;;;3.30;;
72413;SDS011;60995;52.154;4.498;2022-08-21T08:25:49;16.77;;;3.65;;
72413;SDS011;60995;52.154;4.498;2022-08-21T08:28:05;15.90;;;3.47;;
72413;SDS011;60995;52.154;4.498;2022-08-21T08:30:23;13.43;;;2.92;;
72413;SDS011;60995;52.154;4.498;2022-08-21T08:32:40;13.07;;;3.40;;
72413;SDS011;60995;52.154;4.498;2022-08-21T08:34:57;15.57;;;3.22;;
72413;SDS011;60995;52.154;4.498;2022-08-21T08:37:14;16.85;;;4.00;;
72413;SDS011;60995;52.154;4.498;2022-08-21T08:39:32;16.15;;;3.60;;
72413;SDS011;60995;52.154;4.498;2022-08-21T08:41:49;15.23;;;3.10;;
72413;SDS011;60995;52.154;4.498;2022-08-21T08:44:29;14.65;;;3.00;;
72413;SDS011;60995;52.154;4.498;2022-08-21T08:46:47;18.60;;;3.22;;
72413;SDS011;60995;52.154;4.498;2022-08-21T08:49:15;17.52;;;3.15;;
72413;SDS011;60995;52.154;4.498;2022-08-21T08:51:46;14.90;;;3.00;;
72413;SDS011;60995;52.154;4.498;2022-08-21T08:54:19;11.20;;;2.57;;
72413;SDS011;60995;52.154;4.498;2022-08-21T08:56:46;14.25;;;2.92;;
72413;SDS011;60995;52.154;4.498;2022-08-21T08:59:11;9.90;;;2.42;;
72413;SDS011;60995;52.154;4.498;2022-08-21T09:01:42;11.52;;;2.72;;
72413;SDS011;60995;52.154;4.498;2022-08-21T09:03:58;9.35;;;1.80;;
72413;SDS011;60995;52.154;4.498;2022-08-21T09:06:21;9.93;;;1.98;;
72413;SDS011;60995;52.154;4.498;2022-08-21T09:11:37;9.20;;;2.17;;
72413;SDS011;60995;52.154;4.498;2022-08-21T09:19:50;8.45;;;1.80;;
72413;SDS011;60995;52.154;4.498;2022-08-21T09:25:29;8.35;;;1.70;;
72413;SDS011;60995;52.154;4.498;2022-08-21T09:27:54;9.57;;;1.58;;
72413;SDS011;60995;52.154;4.498;2022-08-21T09:30:11;8.18;;;1.70;;
72413;SDS011;60995;52.154;4.498;2022-08-21T09:32:29;8.48;;;1.88;;
72413;SDS011;60995;52.154;4.498;2022-08-21T09:38:11;10.57;;;1.77;;
72413;SDS011;60995;52.154;4.498;2022-08-21T09:40:28;8.70;;;1.90;;
72413;SDS011;60995;52.154;4.498;2022-08-21T09:42:56;8.40;;;1.65;;
72413;SDS011;60995;52.154;4.498;2022-08-21T09:45:27;8.10;;;1.67;;
72413;SDS011;60995;52.154;4.498;2022-08-21T09:47:44;7.38;;;1.58;;
72413;SDS011;60995;52.154;4.498;2022-08-21T09:50:08;11.63;;;1.77;;
72413;SDS011;60995;52.154;4.498;2022-08-21T09:55:16;7.97;;;1.70;;
72413;SDS011;60995;52.154;4.498;2022-08-21T09:58:01;7.57;;;1.58;;
72413;SDS011;60995;52.154;4.498;2022-08-21T10:02:37;7.45;;;1.77;;
72413;SDS011;60995;52.154;4.498;2022-08-21T10:04:59;6.95;;;1.50;;
72413;SDS011;60995;52.154;4.498;2022-08-21T10:07:38;9.40;;;1.70;;
72413;SDS011;60995;52.154;4.498;2022-08-21T10:10:37;6.05;;;1.48;;
72413;SDS011;60995;52.154;4.498;2022-08-21T10:18:18;6.88;;;1.75;;
72413;SDS011;60995;52.154;4.498;2022-08-21T10:20:44;10.57;;;2.20;;
72413;SDS011;60995;52.154;4.498;2022-08-21T10:23:48;7.10;;;1.75;;
72413;SDS011;60995;52.154;4.498;2022-08-21T10:26:31;6.45;;;1.70;;
72413;SDS011;60995;52.154;4.498;2022-08-21T10:32:05;8.98;;;2.00;;
72413;SDS011;60995;52.154;4.498;2022-08-21T10:40:20;7.97;;;1.90;;
72413;SDS011;60995;52.154;4.498;2022-08-21T10:48:22;9.10;;;1.73;;
72413;SDS011;60995;52.154;4.498;2022-08-21T10:56:05;8.80;;;2.70;;
72413;SDS011;60995;52.154;4.498;2022-08-21T10:58:38;8.75;;;1.77;;
72413;SDS011;60995;52.154;4.498;2022-08-21T11:01:16;12.43;;;3.35;;
72413;SDS011;60995;52.154;4.498;2022-08-21T11:03:51;9.82;;;1.75;;
72413;SDS011;60995;52.154;4.498;2022-08-21T11:06:29;8.32;;;1.80;;
72413;SDS011;60995;52.154;4.498;2022-08-21T11:08:50;9.00;;;2.10;;
72413;SDS011;60995;52.154;4.498;2022-08-21T11:11:25;8.77;;;2.35;;
72413;SDS011;60995;52.154;4.498;2022-08-21T11:14:00;11.57;;;2.45;;
72413;SDS011;60995;52.154;4.498;2022-08-21T11:16:45;8.15;;;2.30;;
72413;SDS011;60995;52.154;4.498;2022-08-21T11:19:28;9.18;;;2.00;;
72413;SDS011;60995;52.154;4.498;2022-08-21T11:27:46;13.75;;;4.07;;
72413;SDS011;60995;52.154;4.498;2022-08-21T11:30:14;10.50;;;2.00;;
72413;SDS011;60995;52.154;4.498;2022-08-21T11:35:42;5.78;;;1.40;;
72413;SDS011;60995;52.154;4.498;2022-08-21T11:41:01;9.38;;;2.00;;
72413;SDS011;60995;52.154;4.498;2022-08-21T11:43:45;7.17;;;1.83;;
72413;SDS011;60995;52.154;4.498;2022-08-21T11:46:13;12.18;;;2.28;;
72413;SDS011;60995;52.154;4.498;2022-08-21T11:51:22;10.73;;;1.95;;
72413;SDS011;60995;52.154;4.498;2022-08-21T11:54:30;11.57;;;2.08;;
72413;SDS011;60995;52.154;4.498;2022-08-21T11:57:03;10.70;;;2.25;;
72413;SDS011;60995;52.154;4.498;2022-08-21T11:59:38;9.45;;;2.20;;
72413;SDS011;60995;52.154;4.498;2022-08-21T12:02:00;9.98;;;1.90;;
72413;SDS011;60995;52.154;4.498;2022-08-21T12:04:24;9.27;;;2.08;;
72413;SDS011;60995;52.154;4.498;2022-08-21T12:06:50;12.95;;;2.13;;
72413;SDS011;60995;52.154;4.498;2022-08-21T12:09:07;11.73;;;2.10;;
72413;SDS011;60995;52.154;4.498;2022-08-21T12:11:49;9.75;;;1.98;;
72413;SDS011;60995;52.154;4.498;2022-08-21T12:14:46;8.68;;;2.03;;
72413;SDS011;60995;52.154;4.498;2022-08-21T12:17:07;11.00;;;2.20;;
72413;SDS011;60995;52.154;4.498;2022-08-21T12:19:32;8.50;;;1.85;;
72413;SDS011;60995;52.154;4.498;2022-08-21T12:26:50;9.02;;;2.85;;
72413;SDS011;60995;52.154;4.498;2022-08-21T12:29:24;10.75;;;1.88;;
72413;SDS011;60995;52.154;4.498;2022-08-21T12:34:29;11.73;;;2.40;;
72413;SDS011;60995;52.154;4.498;2022-08-21T12:36:53;6.45;;;1.60;;
72413;SDS011;60995;52.154;4.498;2022-08-21T12:39:22;8.88;;;1.85;;
72413;SDS011;60995;52.154;4.498;2022-08-21T12:41:48;12.23;;;2.15;;
72413;SDS011;60995;52.154;4.498;2022-08-21T12:44:16;8.32;;;1.90;;
72413;SDS011;60995;52.154;4.498;2022-08-21T12:46:50;11.65;;;2.10;;
72413;SDS011;60995;52.154;4.498;2022-08-21T12:49:30;9.98;;;1.70;;
72413;SDS011;60995;52.154;4.498;2022-08-21T12:52:11;8.45;;;1.48;;
72413;SDS011;60995;52.154;4.498;2022-08-21T12:54:41;8.90;;;1.90;;
72413;SDS011;60995;52.154;4.498;2022-08-21T12:57:01;6.47;;;1.52;;
72413;SDS011;60995;52.154;4.498;2022-08-21T12:59:21;7.80;;;1.58;;
72413;SDS011;60995;52.154;4.498;2022-08-21T13:01:47;13.00;;;2.05;;
72413;SDS011;60995;52.154;4.498;2022-08-21T13:04:12;9.73;;;2.08;;
72413;SDS011;60995;52.154;4.498;2022-08-21T13:06:38;10.82;;;2.10;;
72413;SDS011;60995;52.154;4.498;2022-08-21T13:09:03;8.50;;;1.70;;
72413;SDS011;60995;52.154;4.498;2022-08-21T13:11:24;7.93;;;1.58;;
72413;SDS011;60995;52.154;4.498;2022-08-21T13:13:41;7.13;;;1.52;;
72413;SDS011;60995;52.154;4.498;2022-08-21T13:16:00;7.85;;;1.67;;
72413;SDS011;60995;52.154;4.498;2022-08-21T13:18:25;10.30;;;2.28;;
72413;SDS011;60995;52.154;4.498;2022-08-21T13:20:44;10.10;;;1.92;;
72413;SDS011;60995;52.154;4.498;2022-08-21T13:23:06;8.05;;;1.90;;
72413;SDS011;60995;52.154;4.498;2022-08-21T13:28:04;9.55;;;2.13;;
72413;SDS011;60995;52.154;4.498;2022-08-21T13:30:27;10.43;;;2.08;;
72413;SDS011;60995;52.154;4.498;2022-08-21T13:32:48;7.68;;;1.55;;
72413;SDS011;60995;52.154;4.498;2022-08-21T13:37:38;9.63;;;1.90;;
72413;SDS011;60995;52.154;4.498;2022-08-21T13:39:58;10.10;;;2.03;;
72413;SDS011;60995;52.154;4.498;2022-08-21T13:42:15;9.48;;;1.98;;
72413;SDS011;60995;52.154;4.498;2022-08-21T13:44:50;10.38;;;2.03;;
72413;SDS011;60995;52.154;4.498;2022-08-21T13:47:10;10.23;;;1.92;;
72413;SDS011;60995;52.154;4.498;2022-08-21T13:49:31;10.15;;;1.80;;
72413;SDS011;60995;52.154;4.498;2022-08-21T13:51:53;9.07;;;1.80;;
72413;SDS011;60995;52.154;4.498;2022-08-21T13:54:14;10.60;;;2.40;;
72413;SDS011;60995;52.154;4.498;2022-08-21T13:56:52;10.97;;;2.57;;
72413;SDS011;60995;52.154;4.498;2022-08-21T13:59:10;9.13;;;1.92;;
72413;SDS011;60995;52.154;4.498;2022-08-21T14:01:27;8.45;;;2.05;;
72413;SDS011;60995;52.154;4.498;2022-08-21T14:03:52;12.27;;;2.10;;
72413;SDS011;60995;52.154;4.498;2022-08-21T14:06:23;9.02;;;1.92;;
72413;SDS011;60995;52.154;4.498;2022-08-21T14:08:47;10.55;;;2.20;;
72413;SDS011;60995;52.154;4.498;2022-08-21T14:11:32;9.30;;;1.98;;
72413;SDS011;60995;52.154;4.498;2022-08-21T14:16:18;9.73;;;2.28;;
72413;SDS011;60995;52.154;4.498;2022-08-21T14:21:24;13.40;;;2.35;;
72413;SDS011;60995;52.154;4.498;2022-08-21T14:26:49;14.57;;;3.05;;
72413;SDS011;60995;52.154;4.498;2022-08-21T14:29:11;11.35;;;2.30;;
72413;SDS011;60995;52.154;4.498;2022-08-21T14:31:31;9.98;;;1.85;;
72413;SDS011;60995;52.154;4.498;2022-08-21T14:33:49;11.93;;;2.92;;
72413;SDS011;60995;52.154;4.498;2022-08-21T14:36:06;12.18;;;2.42;;
72413;SDS011;60995;52.154;4.498;2022-08-21T14:38:25;11.48;;;2.97;;
72413;SDS011;60995;52.154;4.498;2022-08-21T14:40:44;11.68;;;2.45;;
72413;SDS011;60995;52.154;4.498;2022-08-21T14:43:05;9.85;;;2.33;;
72413;SDS011;60995;52.154;4.498;2022-08-21T14:47:43;10.32;;;2.20;;
72413;SDS011;60995;52.154;4.498;2022-08-21T14:50:00;10.38;;;2.35;;
72413;SDS011;60995;52.154;4.498;2022-08-21T14:52:16;12.35;;;2.10;;
72413;SDS011;60995;52.154;4.498;2022-08-21T14:54:33;13.50;;;2.28;;
72413;SDS011;60995;52.154;4.498;2022-08-21T14:56:49;12.00;;;2.75;;
72413;SDS011;60995;52.154;4.498;2022-08-21T14:59:07;10.27;;;2.38;;
72413;SDS011;60995;52.154;4.498;2022-08-21T15:01:25;14.45;;;2.97;;
72413;SDS011;60995;52.154;4.498;2022-08-21T15:03:41;10.32;;;2.60;;
72413;SDS011;60995;52.154;4.498;2022-08-21T15:05:58;8.35;;;2.17;;
72413;SDS011;60995;52.154;4.498;2022-08-21T15:08:15;14.38;;;3.08;;
72413;SDS011;60995;52.154;4.498;2022-08-21T15:10:33;9.40;;;2.10;;
72413;SDS011;60995;52.154;4.498;2022-08-21T15:12:51;10.85;;;2.03;;
72413;SDS011;60995;52.154;4.498;2022-08-21T15:15:07;11.25;;;2.47;;
72413;SDS011;60995;52.154;4.498;2022-08-21T15:17:25;11.57;;;2.20;;
72413;SDS011;60995;52.154;4.498;2022-08-21T15:19:42;11.05;;;2.08;;
72413;SDS011;60995;52.154;4.498;2022-08-21T15:21:58;10.98;;;2.10;;
72413;SDS011;60995;52.154;4.498;2022-08-21T15:24:14;9.77;;;1.95;;